Flight Track Log - Related Links

Times and Time Zones

All times are in EDT time to prevent confusion due to time zone crossing. See the LXJ549 flight status page for this flight to view local times or setup timezone preferences in your user account.

Time Position Orientation Groundspeed Altitude Reporting Facility
EDT Latitude Longitude Course Direction KTS MPH feet Rate Location/Type
Fri 11:28:20 AM 44.3778 -71.2231 196° South 412 474 11,700  Level Boston Center
Fri 11:29:20 AM 44.2969 -71.2653 201° Southwest 353 406 14,500 3,350 Climbing Boston Center
Fri 11:30:20 AM 44.2294 -71.3797 231° Southwest 311 358 18,400 3,091 Climbing Boston Center
Fri 11:31:32 AM 44.1739 -71.4675 229° Southwest 327 376 21,300 3,364 Climbing Boston Center
Fri 11:32:32 AM 44.1000 -71.5958 231° Southwest 334 384 25,800 3,050 Climbing Boston Center
Fri 11:33:00 AM 44.0094 -71.3762 196° South  Level FlightAware Approximate
Fri 11:33:32 AM 44.0361 -71.7036 231° Southwest 341 392 27,400  Level Boston Center
Fri 11:34:32 AM 43.9639 -71.8228 230° Southwest 377 434 28,000 300 Climbing Boston Center
Fri 11:35:32 AM 43.8894 -71.9533 232° Southwest 410 472 28,000  Level Boston Center
Fri 11:36:32 AM 43.8128 -72.0775 229° Southwest 432 497 28,000  Level Boston Center
Fri 11:37:32 AM 43.7381 -72.2103 232° Southwest 432 497 28,000  Level Boston Center
Fri 11:38:32 AM 43.6611 -72.3339 229° Southwest 432 497 28,000  Level Boston Center
Fri 11:39:32 AM 43.5861 -72.4572 230° Southwest 426 490 28,000  Level Boston Center
Fri 11:40:32 AM 43.5089 -72.5833 230° Southwest 426 490 28,000 -750 Level Boston Center
Fri 11:41:32 AM 43.4317 -72.7117 230° Southwest 431 496 26,500 -1,450 Descending Boston Center
Fri 11:42:32 AM 43.3564 -72.8342 230° Southwest 431 496 25,100 -1,250 Descending Boston Center
Fri 11:43:32 AM 43.2892 -72.9450 230° Southwest 426 490 24,000 -550 Descending Boston Center
Fri 11:44:32 AM 43.2197 -73.0611 231° Southwest 421 484 24,000  Level Boston Center
Fri 11:45:32 AM 43.1483 -73.1714 228° Southwest 405 466 24,000 -200 Level Boston Center
Fri 11:46:32 AM 43.0744 -73.2900 230° Southwest 405 466 23,600 -1,450 Descending Boston Center
Fri 11:47:32 AM 42.9903 -73.4164 228° Southwest 410 472 21,100 -2,000 Descending Boston Center
Fri 11:48:32 AM 42.9331 -73.5092 230° Southwest 399 459 19,600 -1,850 Descending Boston Center
Fri 11:49:32 AM 42.8611 -73.6242 230° Southwest 374 430 17,400 -2,050 Descending Boston Center
Fri 11:50:32 AM 42.8017 -73.7192 230° Southwest 374 430 15,500 -1,700 Descending Boston Center
Fri 11:51:32 AM 42.7275 -73.8167 224° Southwest 379 436 14,000 -682 Descending Boston Center
Fri 11:52:44 AM 42.6144 -73.8592 195° South 350 403 14,000  Level Boston Center
Fri 11:53:56 AM 42.5139 -73.9075 200° South 350 403 14,000  Level Boston Center
Fri 11:54:56 AM 42.3986 -73.9583 198° South 363 418 14,000  Level Boston Center
Fri 11:55:56 AM 42.3292 -74.0100 209° Southwest 363 418 14,000  Level Boston Center
Fri 11:56:56 AM 42.2300 -74.1000 214° Southwest 363 418 14,000  Level Boston Center
Fri 11:57:56 AM 42.1494 -74.1764 215° Southwest 368 423 14,000  Level Boston Center
Fri 11:58:56 AM 42.0611 -74.2381 207° Southwest 363 418 14,000 50 Level Boston Center
Fri 11:59:56 AM 41.9644 -74.2886 201° Southwest 363 418 14,100 -200 Climbing Boston Center
Fri 12:00:56 PM 41.8844 -74.3336 203° Southwest 357 411 13,600 -1,100 Descending Boston Center
Fri 12:01:56 PM 41.7981 -74.3783 201° Southwest 320 368 11,900 -1,600 Descending Boston Center
Fri 12:02:56 PM 41.7350 -74.4153 204° Southwest 288 331 10,400 -1,500 Descending Boston Center
Fri 12:03:56 PM 41.6592 -74.4547 201° Southwest 276 318 8,900 -1,400 Descending Boston Center
Fri 12:04:56 PM 41.5983 -74.4889 203° Southwest 270 311 7,600 -1,450 Descending Boston Center
Fri 12:05:56 PM 41.5244 -74.5336 204° Southwest 270 311 6,000 -850 Descending Boston Center
Fri 12:06:56 PM 41.4633 -74.5647 201° Southwest 270 311 5,900 -38 Descending Boston Center
Fri 12:08:33 PM 41.3500 -74.6167 199° South 267 307 5,900 -650 Level New York TRACON
Fri 12:09:33 PM 41.2667 -74.6000 171° South 263 303 4,200 -900 Descending New York TRACON
Fri 12:10:33 PM 41.2167 -74.5333 135° Southeast 272 313 4,100 -50 Descending New York TRACON
Fri 12:11:33 PM 41.1833 -74.4500 118° Southeast 282 325 4,100 -50 Level New York TRACON
Fri 12:12:33 PM 41.1500 -74.3667 118° Southeast 272 313 4,000 -500 Descending New York TRACON
Fri 12:13:33 PM 41.1167 -74.2667 114° Southeast 265 305 3,100 -450 Descending New York TRACON
Fri 12:14:33 PM 41.0833 -74.1833 118° Southeast 268 308 3,100 -150 Level New York TRACON
Fri 12:15:33 PM 41.0500 -74.1000 118° Southeast 263 303 2,800 -545 Descending New York TRACON
Fri 12:16:34 PM 41.0000 -74.0500 143° Southeast 233 268 2,000 -450 Descending New York TRACON
Fri 12:17:33 PM 40.9500 -74.0500 180° South 183 211 1,900 -504 Descending New York TRACON
Fri 12:18:33 PM 40.9000 -74.0500 180° South 160 184 1,000 -900 Descending New York TRACON
Fri 12:20:00 PM 40.8500 -74.0500 149° Southeast  Level FlightAware Approximate

Login

Don't have an account? Register now (free) for customized features, flight alerts, and more!